createdAt,value
2023-08-12T00:00:26.791Z,1007.95
2023-08-12T00:00:56.852Z,1007.95
2023-08-12T00:01:26.902Z,1007.95
2023-08-12T00:01:56.803Z,1007.95
2023-08-12T00:02:26.785Z,1007.95
2023-08-12T00:02:57.381Z,1007.94
2023-08-12T00:03:26.862Z,1007.94
2023-08-12T00:03:56.807Z,1007.94
2023-08-12T00:04:26.780Z,1007.94
2023-08-12T00:04:56.757Z,1007.94
2023-08-12T00:05:26.785Z,1007.94
2023-08-12T00:05:56.792Z,1007.94
2023-08-12T00:06:26.784Z,1007.93
2023-08-12T00:06:56.737Z,1007.93
2023-08-12T00:07:26.739Z,1007.93
2023-08-12T00:07:56.749Z,1007.92
2023-08-12T00:08:26.789Z,1007.92
2023-08-12T00:08:56.751Z,1007.91
2023-08-12T00:09:26.737Z,1007.90
2023-08-12T00:09:57.703Z,1007.89
2023-08-12T00:10:26.937Z,1007.88
2023-08-12T00:10:56.712Z,1007.86
2023-08-12T00:11:26.733Z,1007.85
2023-08-12T00:11:56.694Z,1007.85
2023-08-12T00:12:26.697Z,1007.84
2023-08-12T00:12:56.691Z,1007.83
2023-08-12T00:13:26.750Z,1007.82
2023-08-12T00:13:56.685Z,1007.82
2023-08-12T00:14:26.693Z,1007.82
2023-08-12T00:14:56.660Z,1007.82
2023-08-12T00:15:26.679Z,1007.82
2023-08-12T00:15:56.773Z,1007.82
2023-08-12T00:16:26.672Z,1007.82
2023-08-12T00:16:56.621Z,1007.82
2023-08-12T00:17:26.639Z,1007.82
2023-08-12T00:17:56.666Z,1007.83
2023-08-12T00:18:26.668Z,1007.83
2023-08-12T00:18:56.618Z,1007.83
2023-08-12T00:19:26.612Z,1007.82
2023-08-12T00:19:56.625Z,1007.82
2023-08-12T00:20:26.598Z,1007.82
2023-08-12T00:20:56.644Z,1007.81
2023-08-12T00:21:26.627Z,1007.80
2023-08-12T00:21:56.650Z,1007.80
2023-08-12T00:22:26.598Z,1007.80
2023-08-12T00:22:56.574Z,1007.79
2023-08-12T00:23:26.581Z,1007.79
2023-08-12T00:23:56.735Z,1007.78
2023-08-12T00:24:26.773Z,1007.77
2023-08-12T00:24:56.567Z,1007.78
2023-08-12T00:25:26.610Z,1007.77
2023-08-12T00:25:56.541Z,1007.76
2023-08-12T00:26:26.546Z,1007.76
2023-08-12T00:26:56.541Z,1007.76
2023-08-12T00:27:26.563Z,1007.76
2023-08-12T00:27:56.561Z,1007.76
2023-08-12T00:28:26.497Z,1007.75
2023-08-12T00:28:56.562Z,1007.76
2023-08-12T00:29:26.508Z,1007.76
2023-08-12T00:29:56.521Z,1007.76
2023-08-12T00:30:26.487Z,1007.76
2023-08-12T00:30:56.523Z,1007.76
2023-08-12T00:31:26.514Z,1007.76
2023-08-12T00:31:56.489Z,1007.75
2023-08-12T00:32:26.495Z,1007.75
2023-08-12T00:32:56.573Z,1007.75
2023-08-12T00:33:26.470Z,1007.74
2023-08-12T00:33:56.493Z,1007.73
2023-08-12T00:34:26.478Z,1007.73
2023-08-12T00:34:56.446Z,1007.73
2023-08-12T00:35:26.440Z,1007.73
2023-08-12T00:35:56.412Z,1007.72
2023-08-12T00:36:26.435Z,1007.72
2023-08-12T00:36:56.456Z,1007.72
2023-08-12T00:37:26.476Z,1007.71
2023-08-12T00:37:56.538Z,1007.72
2023-08-12T00:38:26.638Z,1007.72
2023-08-12T00:38:56.411Z,1007.72
2023-08-12T00:39:26.470Z,1007.72
2023-08-12T00:39:56.378Z,1007.72
2023-08-12T00:40:26.422Z,1007.71
2023-08-12T00:40:56.380Z,1007.71
2023-08-12T00:41:26.409Z,1007.70
2023-08-12T00:41:56.397Z,1007.70
2023-08-12T00:42:26.394Z,1007.70
2023-08-12T00:42:56.421Z,1007.69
2023-08-12T00:43:26.377Z,1007.69
2023-08-12T00:43:56.380Z,1007.69
2023-08-12T00:44:26.365Z,1007.68
2023-08-12T00:44:56.386Z,1007.69
2023-08-12T00:45:26.391Z,1007.68
2023-08-12T00:45:56.345Z,1007.67
2023-08-12T00:46:26.333Z,1007.67
2023-08-12T00:46:56.382Z,1007.68
2023-08-12T00:47:26.441Z,1007.68
2023-08-12T00:47:56.346Z,1007.68
2023-08-12T00:48:26.293Z,1007.67
2023-08-12T00:48:56.269Z,1007.66
2023-08-12T00:49:26.283Z,1007.65
2023-08-12T00:49:56.313Z,1007.65
2023-08-12T00:50:26.353Z,1007.63
2023-08-12T00:50:56.262Z,1007.63
2023-08-12T00:51:26.283Z,1007.62
2023-08-12T00:51:56.420Z,1007.62
2023-08-12T00:52:26.472Z,1007.61
2023-08-12T00:52:56.259Z,1007.60
2023-08-12T00:53:26.249Z,1007.61
2023-08-12T00:53:56.260Z,1007.59
2023-08-12T00:54:26.244Z,1007.59
2023-08-12T00:54:56.225Z,1007.59
2023-08-12T00:55:26.345Z,1007.58
2023-08-12T00:55:56.224Z,1007.58
2023-08-12T00:56:26.210Z,1007.58
2023-08-12T00:56:56.257Z,1007.57
2023-08-12T00:57:26.230Z,1007.57
2023-08-12T00:57:56.191Z,1007.56
2023-08-12T00:58:26.196Z,1007.56
2023-08-12T00:58:56.258Z,1007.56
2023-08-12T00:59:26.359Z,1007.55
2023-08-12T00:59:56.290Z,1007.55
2023-08-12T01:00:26.198Z,1007.54
2023-08-12T01:00:56.218Z,1007.53
2023-08-12T01:01:26.177Z,1007.51
2023-08-12T01:01:56.217Z,1007.51
2023-08-12T01:02:26.483Z,1007.51
2023-08-12T01:02:56.363Z,1007.50
2023-08-12T01:03:26.171Z,1007.48
2023-08-12T01:03:56.185Z,1007.47
2023-08-12T01:04:26.172Z,1007.47
2023-08-12T01:04:56.170Z,1007.45
2023-08-12T01:05:26.136Z,1007.44
2023-08-12T01:05:56.237Z,1007.44
2023-08-12T01:06:26.347Z,1007.43
2023-08-12T01:06:56.094Z,1007.42
2023-08-12T01:07:26.090Z,1007.42
2023-08-12T01:07:56.149Z,1007.41
2023-08-12T01:08:26.110Z,1007.41
2023-08-12T01:08:56.122Z,1007.40
2023-08-12T01:09:26.134Z,1007.40
2023-08-12T01:09:56.177Z,1007.41
2023-08-12T01:10:26.057Z,1007.41
2023-08-12T01:10:56.036Z,1007.41
2023-08-12T01:11:26.054Z,1007.41
2023-08-12T01:11:56.032Z,1007.41
2023-08-12T01:12:26.049Z,1007.41
2023-08-12T01:12:56.071Z,1007.40
2023-08-12T01:13:26.027Z,1007.39
2023-08-12T01:13:56.038Z,1007.39
2023-08-12T01:14:26.031Z,1007.38
2023-08-12T01:14:55.995Z,1007.38
2023-08-12T01:15:26.040Z,1007.37
2023-08-12T01:15:56.004Z,1007.37
2023-08-12T01:16:26.071Z,1007.38
2023-08-12T01:16:56.023Z,1007.38
2023-08-12T01:17:25.978Z,1007.37
2023-08-12T01:17:56.022Z,1007.37
2023-08-12T01:18:26.036Z,1007.37
2023-08-12T01:18:56.027Z,1007.36
2023-08-12T01:19:25.973Z,1007.36
2023-08-12T01:19:56.088Z,1007.35
2023-08-12T01:20:26.232Z,1007.35
2023-08-12T01:20:55.942Z,1007.34
2023-08-12T01:21:25.953Z,1007.34
2023-08-12T01:21:55.946Z,1007.33
2023-08-12T01:22:25.913Z,1007.31
2023-08-12T01:22:55.941Z,1007.30
2023-08-12T01:23:25.951Z,1007.29
2023-08-12T01:23:55.899Z,1007.28
2023-08-12T01:24:25.953Z,1007.27
2023-08-12T01:24:55.911Z,1007.27
2023-08-12T01:25:25.893Z,1007.27
2023-08-12T01:25:55.931Z,1007.27
2023-08-12T01:26:25.914Z,1007.27
2023-08-12T01:26:55.895Z,1007.28
2023-08-12T01:27:26.471Z,1007.28
2023-08-12T01:27:55.854Z,1007.28
2023-08-12T01:28:25.921Z,1007.29
2023-08-12T01:28:55.851Z,1007.28
2023-08-12T01:29:25.841Z,1007.28
2023-08-12T01:29:55.850Z,1007.28
2023-08-12T01:30:25.860Z,1007.27
2023-08-12T01:30:55.913Z,1007.27
2023-08-12T01:31:25.848Z,1007.27
2023-08-12T01:31:56.068Z,1007.26
2023-08-12T01:32:25.824Z,1007.25
2023-08-12T01:32:55.839Z,1007.24
2023-08-12T01:33:25.809Z,1007.24
2023-08-12T01:33:55.970Z,1007.22
2023-08-12T01:34:26.000Z,1007.21
2023-08-12T01:34:55.815Z,1007.20
2023-08-12T01:35:25.818Z,1007.18
2023-08-12T01:35:55.796Z,1007.17
2023-08-12T01:36:25.852Z,1007.15
2023-08-12T01:36:55.765Z,1007.15
2023-08-12T01:37:25.770Z,1007.14
2023-08-12T01:37:55.745Z,1007.13
2023-08-12T01:38:25.752Z,1007.12
2023-08-12T01:38:55.764Z,1007.12
2023-08-12T01:39:25.745Z,1007.11
2023-08-12T01:39:55.757Z,1007.10
2023-08-12T01:40:25.733Z,1007.09
2023-08-12T01:40:56.399Z,1007.07
2023-08-12T01:41:25.712Z,1007.06
2023-08-12T01:41:55.718Z,1007.06
2023-08-12T01:42:25.738Z,1007.05
2023-08-12T01:42:55.691Z,1007.03
2023-08-12T01:43:25.675Z,1007.03
2023-08-12T01:43:55.721Z,1007.03
2023-08-12T01:44:25.675Z,1007.03
2023-08-12T01:44:55.672Z,1007.02
2023-08-12T01:45:25.682Z,1007.01
2023-08-12T01:45:55.727Z,1007.01
2023-08-12T01:46:25.679Z,1007.00
2023-08-12T01:46:55.661Z,1007.00
2023-08-12T01:47:25.715Z,1006.99
2023-08-12T01:47:56.478Z,1006.97
2023-08-12T01:48:25.953Z,1006.97
2023-08-12T01:48:55.616Z,1006.96
2023-08-12T01:49:25.673Z,1006.95
2023-08-12T01:49:55.616Z,1006.93
2023-08-12T01:50:25.619Z,1006.92
2023-08-12T01:50:55.617Z,1006.91
2023-08-12T01:51:25.594Z,1006.90
2023-08-12T01:51:55.581Z,1006.90
2023-08-12T01:52:26.503Z,1006.90
2023-08-12T01:52:55.594Z,1006.91
2023-08-12T01:53:26.467Z,1006.91
2023-08-12T01:53:55.611Z,1006.90
2023-08-12T01:54:25.648Z,1006.90
2023-08-12T01:54:55.621Z,1006.91
2023-08-12T01:55:25.575Z,1006.91
2023-08-12T01:55:55.559Z,1006.92
2023-08-12T01:56:25.563Z,1006.91
2023-08-12T01:56:55.591Z,1006.91
2023-08-12T01:57:25.533Z,1006.91
2023-08-12T01:57:55.534Z,1006.92
2023-08-12T01:58:25.535Z,1006.92
2023-08-12T01:58:55.531Z,1006.92
2023-08-12T01:59:25.523Z,1006.92
2023-08-12T01:59:55.572Z,1006.93
2023-08-12T02:00:25.499Z,1006.94
2023-08-12T02:00:55.542Z,1006.94
2023-08-12T02:01:25.550Z,1006.94
2023-08-12T02:01:55.688Z,1006.94
2023-08-12T02:02:25.707Z,1006.93
2023-08-12T02:02:55.617Z,1006.93
2023-08-12T02:03:26.252Z,1006.92
2023-08-12T02:03:55.664Z,1006.91
2023-08-12T02:04:25.469Z,1006.91
2023-08-12T02:04:55.473Z,1006.90
2023-08-12T02:05:25.480Z,1006.90
2023-08-12T02:05:56.449Z,1006.91
2023-08-12T02:06:25.477Z,1006.89
2023-08-12T02:06:55.468Z,1006.88
2023-08-12T02:07:25.441Z,1006.87
2023-08-12T02:07:55.473Z,1006.86
2023-08-12T02:08:25.450Z,1006.86
2023-08-12T02:08:55.444Z,1006.84
2023-08-12T02:09:25.400Z,1006.85
2023-08-12T02:09:55.432Z,1006.84
2023-08-12T02:10:25.397Z,1006.84
2023-08-12T02:10:55.403Z,1006.84
2023-08-12T02:11:25.392Z,1006.84
2023-08-12T02:11:55.402Z,1006.85
2023-08-12T02:12:25.372Z,1006.86
2023-08-12T02:12:55.407Z,1006.86
2023-08-12T02:13:25.386Z,1006.86
2023-08-12T02:13:55.373Z,1006.86
2023-08-12T02:14:25.372Z,1006.85
2023-08-12T02:14:55.426Z,1006.86
2023-08-12T02:15:25.341Z,1006.85
2023-08-12T02:15:55.507Z,1006.84
2023-08-12T02:16:25.610Z,1006.84
2023-08-12T02:16:55.361Z,1006.83
2023-08-12T02:17:25.364Z,1006.82
2023-08-12T02:17:55.344Z,1006.82
2023-08-12T02:18:25.320Z,1006.81
2023-08-12T02:18:55.305Z,1006.80
2023-08-12T02:19:25.322Z,1006.79
2023-08-12T02:19:55.328Z,1006.78
2023-08-12T02:20:25.316Z,1006.78
2023-08-12T02:20:55.281Z,1006.78
2023-08-12T02:21:25.285Z,1006.77
2023-08-12T02:21:55.267Z,1006.77
2023-08-12T02:22:25.283Z,1006.77
2023-08-12T02:22:55.251Z,1006.76
2023-08-12T02:23:25.255Z,1006.76
2023-08-12T02:23:55.278Z,1006.75
2023-08-12T02:24:25.264Z,1006.75
2023-08-12T02:24:55.220Z,1006.74
2023-08-12T02:25:25.280Z,1006.74
2023-08-12T02:25:55.234Z,1006.72
2023-08-12T02:26:25.230Z,1006.71
2023-08-12T02:26:55.239Z,1006.70
2023-08-12T02:27:25.261Z,1006.69
2023-08-12T02:27:55.228Z,1006.68
2023-08-12T02:28:25.205Z,1006.68
2023-08-12T02:28:55.216Z,1006.67
2023-08-12T02:29:25.232Z,1006.66
2023-08-12T02:29:55.318Z,1006.65
2023-08-12T02:30:25.380Z,1006.64
2023-08-12T02:30:55.992Z,1006.64
2023-08-12T02:31:25.193Z,1006.64
2023-08-12T02:31:55.222Z,1006.62
2023-08-12T02:32:25.221Z,1006.61
2023-08-12T02:32:55.191Z,1006.60
2023-08-12T02:33:25.180Z,1006.60
2023-08-12T02:33:55.144Z,1006.60
2023-08-12T02:34:25.133Z,1006.60
2023-08-12T02:34:55.170Z,1006.60
2023-08-12T02:35:25.148Z,1006.59
2023-08-12T02:35:55.138Z,1006.58
2023-08-12T02:36:25.117Z,1006.57
2023-08-12T02:36:55.970Z,1006.55
2023-08-12T02:37:25.107Z,1006.55
2023-08-12T02:37:55.133Z,1006.54
2023-08-12T02:38:25.085Z,1006.52
2023-08-12T02:38:55.105Z,1006.52
2023-08-12T02:39:25.107Z,1006.52
2023-08-12T02:39:55.118Z,1006.50
2023-08-12T02:40:25.074Z,1006.50
2023-08-12T02:40:55.109Z,1006.50
2023-08-12T02:41:25.997Z,1006.48
2023-08-12T02:41:55.089Z,1006.48
2023-08-12T02:42:25.120Z,1006.47
2023-08-12T02:42:55.033Z,1006.46
2023-08-12T02:43:25.071Z,1006.46
2023-08-12T02:43:55.170Z,1006.44
2023-08-12T02:44:25.245Z,1006.43
2023-08-12T02:44:55.073Z,1006.41
2023-08-12T02:45:25.054Z,1006.40
2023-08-12T02:45:55.064Z,1006.38
2023-08-12T02:46:25.038Z,1006.36
2023-08-12T02:46:54.990Z,1006.34
2023-08-12T02:47:25.038Z,1006.33
2023-08-12T02:47:55.018Z,1006.32
2023-08-12T02:48:24.991Z,1006.31
2023-08-12T02:48:54.970Z,1006.30
2023-08-12T02:49:24.980Z,1006.29
2023-08-12T02:49:54.956Z,1006.28
2023-08-12T02:50:24.982Z,1006.27
2023-08-12T02:50:54.961Z,1006.26
2023-08-12T02:51:24.937Z,1006.25
2023-08-12T02:51:54.937Z,1006.24
2023-08-12T02:52:24.927Z,1006.25
2023-08-12T02:52:54.927Z,1006.25
2023-08-12T02:53:24.950Z,1006.25
2023-08-12T02:53:54.923Z,1006.26
2023-08-12T02:54:24.924Z,1006.29
2023-08-12T02:54:54.901Z,1006.31
2023-08-12T02:55:24.917Z,1006.33
2023-08-12T02:55:54.946Z,1006.37
2023-08-12T02:56:24.895Z,1006.41
2023-08-12T02:56:54.901Z,1006.45
2023-08-12T02:57:24.883Z,1006.48
2023-08-12T02:57:55.020Z,1006.53
2023-08-12T02:58:25.076Z,1006.57
2023-08-12T02:58:54.904Z,1006.61
2023-08-12T02:59:24.866Z,1006.65
2023-08-12T02:59:54.880Z,1006.66
2023-08-12T03:00:24.863Z,1006.68
2023-08-12T03:00:54.874Z,1006.70
2023-08-12T03:01:24.868Z,1006.69
2023-08-12T03:01:54.839Z,1006.69
2023-08-12T03:02:24.841Z,1006.71
2023-08-12T03:02:54.975Z,1006.71
2023-08-12T03:03:24.854Z,1006.73
2023-08-12T03:03:54.811Z,1006.75
2023-08-12T03:04:24.802Z,1006.75
2023-08-12T03:04:54.831Z,1006.75
2023-08-12T03:05:24.920Z,1006.77
2023-08-12T03:05:54.794Z,1006.77
2023-08-12T03:06:24.834Z,1006.78
2023-08-12T03:06:54.825Z,1006.77
2023-08-12T03:07:24.788Z,1006.79
2023-08-12T03:07:54.787Z,1006.78
2023-08-12T03:08:24.775Z,1006.76
2023-08-12T03:08:54.768Z,1006.77
2023-08-12T03:09:24.815Z,1006.76
2023-08-12T03:09:54.736Z,1006.75
2023-08-12T03:10:24.742Z,1006.73
2023-08-12T03:10:54.746Z,1006.75
2023-08-12T03:11:24.715Z,1006.75
2023-08-12T03:11:54.886Z,1006.75
2023-08-12T03:12:24.990Z,1006.74
2023-08-12T03:12:54.822Z,1006.74
2023-08-12T03:13:24.723Z,1006.74
2023-08-12T03:13:54.717Z,1006.75
2023-08-12T03:14:24.755Z,1006.74
2023-08-12T03:14:54.700Z,1006.73
2023-08-12T03:15:24.821Z,1006.71
2023-08-12T03:15:54.705Z,1006.69
2023-08-12T03:16:24.703Z,1006.69
2023-08-12T03:16:54.652Z,1006.70
2023-08-12T03:17:24.716Z,1006.70
2023-08-12T03:17:54.723Z,1006.71
2023-08-12T03:18:24.660Z,1006.72
2023-08-12T03:18:54.650Z,1006.73
2023-08-12T03:19:24.684Z,1006.74
2023-08-12T03:19:54.636Z,1006.76
2023-08-12T03:20:24.640Z,1006.76
2023-08-12T03:20:54.696Z,1006.77
2023-08-12T03:21:24.604Z,1006.77
2023-08-12T03:21:54.614Z,1006.75
2023-08-12T03:22:24.618Z,1006.72
2023-08-12T03:22:54.603Z,1006.72
2023-08-12T03:23:24.761Z,1006.72
2023-08-12T03:23:54.614Z,1006.71
2023-08-12T03:24:24.585Z,1006.71
2023-08-12T03:24:54.636Z,1006.72
2023-08-12T03:25:24.572Z,1006.73
2023-08-12T03:25:54.679Z,1006.76
2023-08-12T03:26:24.779Z,1006.78
2023-08-12T03:26:54.571Z,1006.81
2023-08-12T03:27:24.550Z,1006.84
2023-08-12T03:27:54.548Z,1006.84
2023-08-12T03:28:24.546Z,1006.84
2023-08-12T03:28:54.533Z,1006.83
2023-08-12T03:29:24.534Z,1006.82
2023-08-12T03:29:54.549Z,1006.81
2023-08-12T03:30:24.521Z,1006.79
2023-08-12T03:30:54.630Z,1006.78
2023-08-12T03:31:24.521Z,1006.76
2023-08-12T03:31:54.510Z,1006.73
2023-08-12T03:32:24.491Z,1006.71
2023-08-12T03:32:54.549Z,1006.71
2023-08-12T03:33:24.420Z,1006.71
2023-08-12T03:33:54.480Z,1006.72
2023-08-12T03:34:24.477Z,1006.74
2023-08-12T03:34:54.503Z,1006.75
2023-08-12T03:35:24.469Z,1006.76
2023-08-12T03:35:54.408Z,1006.78
2023-08-12T03:36:24.484Z,1006.80
2023-08-12T03:36:54.385Z,1006.81
2023-08-12T03:37:24.400Z,1006.82
2023-08-12T03:37:54.393Z,1006.82
2023-08-12T03:38:24.406Z,1006.82
2023-08-12T03:38:54.394Z,1006.82
2023-08-12T03:39:24.371Z,1006.83
2023-08-12T03:39:54.606Z,1006.83
2023-08-12T03:40:24.634Z,1006.84
2023-08-12T03:40:54.467Z,1006.86
2023-08-12T03:41:24.412Z,1006.87
2023-08-12T03:41:54.443Z,1006.89
2023-08-12T03:42:24.455Z,1006.89
2023-08-12T03:42:54.342Z,1006.89
2023-08-12T03:43:24.346Z,1006.88
2023-08-12T03:43:54.321Z,1006.86
2023-08-12T03:44:24.333Z,1006.84
2023-08-12T03:44:54.354Z,1006.82
2023-08-12T03:45:24.397Z,1006.81
2023-08-12T03:45:54.374Z,1006.81
2023-08-12T03:46:24.338Z,1006.81
2023-08-12T03:46:54.344Z,1006.83
2023-08-12T03:47:24.353Z,1006.83
2023-08-12T03:47:54.330Z,1006.83
2023-08-12T03:48:24.268Z,1006.84
2023-08-12T03:48:54.389Z,1006.84
2023-08-12T03:49:24.333Z,1006.83
2023-08-12T03:49:54.282Z,1006.84
2023-08-12T03:50:24.992Z,1006.85
2023-08-12T03:50:54.252Z,1006.86
2023-08-12T03:51:24.228Z,1006.85
2023-08-12T03:51:54.257Z,1006.85
2023-08-12T03:52:24.251Z,1006.84
2023-08-12T03:52:54.212Z,1006.83
2023-08-12T03:53:24.242Z,1006.83
2023-08-12T03:53:54.376Z,1006.83
2023-08-12T03:54:24.432Z,1006.83
2023-08-12T03:54:54.304Z,1006.82
2023-08-12T03:55:24.181Z,1006.82
2023-08-12T03:55:54.205Z,1006.82
2023-08-12T03:56:24.221Z,1006.83
2023-08-12T03:56:54.172Z,1006.84
2023-08-12T03:57:24.168Z,1006.85
2023-08-12T03:57:54.196Z,1006.86
2023-08-12T03:58:24.991Z,1006.87
2023-08-12T03:58:54.178Z,1006.88
2023-08-12T03:59:24.152Z,1006.88
2023-08-12T03:59:54.143Z,1006.88
2023-08-12T04:00:24.145Z,1006.88
2023-08-12T04:00:54.161Z,1006.87
2023-08-12T04:01:24.135Z,1006.87
2023-08-12T04:01:54.127Z,1006.87
2023-08-12T04:02:24.172Z,1006.87
2023-08-12T04:02:54.165Z,1006.87
2023-08-12T04:03:24.176Z,1006.87
2023-08-12T04:03:54.179Z,1006.87
2023-08-12T04:04:24.111Z,1006.86
2023-08-12T04:04:54.106Z,1006.86
2023-08-12T04:05:24.081Z,1006.87
2023-08-12T04:05:54.113Z,1006.87
2023-08-12T04:06:24.083Z,1006.87
2023-08-12T04:06:54.996Z,1006.86
2023-08-12T04:07:24.086Z,1006.85
2023-08-12T04:07:54.194Z,1006.85
2023-08-12T04:08:24.294Z,1006.86
2023-08-12T04:08:54.101Z,1006.85
2023-08-12T04:09:24.069Z,1006.85
2023-08-12T04:09:54.062Z,1006.84
2023-08-12T04:10:24.088Z,1006.84
2023-08-12T04:10:54.013Z,1006.84
2023-08-12T04:11:24.025Z,1006.85
2023-08-12T04:11:54.039Z,1006.86
2023-08-12T04:12:24.011Z,1006.86
2023-08-12T04:12:54.025Z,1006.86
2023-08-12T04:13:24.020Z,1006.86
2023-08-12T04:13:53.987Z,1006.86
2023-08-12T04:14:24.004Z,1006.86
2023-08-12T04:14:53.996Z,1006.86
2023-08-12T04:15:23.990Z,1006.87
2023-08-12T04:15:54.002Z,1006.88
2023-08-12T04:16:23.994Z,1006.89
2023-08-12T04:16:53.997Z,1006.90
2023-08-12T04:17:24.008Z,1006.92
2023-08-12T04:17:53.995Z,1006.93
2023-08-12T04:18:23.972Z,1006.94
2023-08-12T04:18:53.933Z,1006.95
2023-08-12T04:19:23.951Z,1006.96
2023-08-12T04:19:53.972Z,1006.98
2023-08-12T04:20:23.915Z,1007.00
2023-08-12T04:20:53.923Z,1007.01
2023-08-12T04:21:23.929Z,1007.03
2023-08-12T04:21:54.026Z,1007.04
2023-08-12T04:22:24.100Z,1007.05
2023-08-12T04:22:53.903Z,1007.06
2023-08-12T04:23:23.900Z,1007.06
2023-08-12T04:23:53.873Z,1007.07
2023-08-12T04:24:23.899Z,1007.08
2023-08-12T04:24:53.876Z,1007.07
2023-08-12T04:25:23.880Z,1007.07
2023-08-12T04:25:53.863Z,1007.07
2023-08-12T04:26:23.845Z,1007.08
2023-08-12T04:26:53.865Z,1007.09
2023-08-12T04:27:23.868Z,1007.09
2023-08-12T04:27:53.854Z,1007.09
2023-08-12T04:28:23.877Z,1007.08
2023-08-12T04:28:53.833Z,1007.09
2023-08-12T04:29:23.871Z,1007.09
2023-08-12T04:29:53.877Z,1007.10
2023-08-12T04:30:23.812Z,1007.11
2023-08-12T04:30:54.146Z,1007.11
2023-08-12T04:31:23.842Z,1007.12
2023-08-12T04:31:53.799Z,1007.13
2023-08-12T04:32:23.862Z,1007.15
2023-08-12T04:32:53.796Z,1007.16
2023-08-12T04:33:23.792Z,1007.15
2023-08-12T04:33:53.763Z,1007.14
2023-08-12T04:34:24.495Z,1007.13
2023-08-12T04:34:54.507Z,1007.12
2023-08-12T04:35:23.893Z,1007.11
2023-08-12T04:35:53.876Z,1007.11
2023-08-12T04:36:23.998Z,1007.10
2023-08-12T04:36:53.734Z,1007.10
2023-08-12T04:37:23.745Z,1007.11
2023-08-12T04:37:53.731Z,1007.11
2023-08-12T04:38:23.728Z,1007.11
2023-08-12T04:38:53.717Z,1007.11
2023-08-12T04:39:23.722Z,1007.09
2023-08-12T04:39:53.699Z,1007.09
2023-08-12T04:40:23.767Z,1007.11
2023-08-12T04:40:53.731Z,1007.10
2023-08-12T04:41:23.710Z,1007.10
2023-08-12T04:41:53.680Z,1007.08
2023-08-12T04:42:23.678Z,1007.07
2023-08-12T04:42:53.673Z,1007.07
2023-08-12T04:43:23.683Z,1007.08
2023-08-12T04:43:53.668Z,1007.08
2023-08-12T04:44:23.683Z,1007.06
2023-08-12T04:44:53.640Z,1007.06
2023-08-12T04:45:23.707Z,1007.06
2023-08-12T04:45:53.791Z,1007.05
2023-08-12T04:46:23.700Z,1007.06
2023-08-12T04:46:53.620Z,1007.05
2023-08-12T04:47:23.623Z,1007.05
2023-08-12T04:47:53.661Z,1007.05
2023-08-12T04:48:23.632Z,1007.06
2023-08-12T04:48:53.621Z,1007.07
2023-08-12T04:49:23.607Z,1007.07
2023-08-12T04:49:53.713Z,1007.07
2023-08-12T04:50:23.835Z,1007.08
2023-08-12T04:50:53.617Z,1007.08
2023-08-12T04:51:23.572Z,1007.08
2023-08-12T04:51:53.579Z,1007.08
2023-08-12T04:52:23.563Z,1007.08
2023-08-12T04:52:53.550Z,1007.09
2023-08-12T04:53:23.565Z,1007.10
2023-08-12T04:53:53.546Z,1007.10
2023-08-12T04:54:23.553Z,1007.11
2023-08-12T04:54:53.538Z,1007.12
2023-08-12T04:55:23.547Z,1007.13
2023-08-12T04:55:53.562Z,1007.13
2023-08-12T04:56:23.542Z,1007.15
2023-08-12T04:56:53.550Z,1007.15
2023-08-12T04:57:23.579Z,1007.16
2023-08-12T04:57:53.536Z,1007.16
2023-08-12T04:58:23.522Z,1007.17
2023-08-12T04:58:53.485Z,1007.17
2023-08-12T04:59:23.488Z,1007.18
2023-08-12T04:59:53.500Z,1007.18
2023-08-12T05:00:23.516Z,1007.18
2023-08-12T05:00:53.473Z,1007.18
2023-08-12T05:01:23.565Z,1007.19
2023-08-12T05:02:03.932Z,1007.19
2023-08-12T05:02:23.904Z,1007.19
2023-08-12T05:02:53.480Z,1007.20
2023-08-12T05:03:23.501Z,1007.20
2023-08-12T05:03:53.569Z,1007.20
2023-08-12T05:04:23.626Z,1007.21
2023-08-12T05:04:53.478Z,1007.21
2023-08-12T05:05:23.544Z,1007.22
2023-08-12T05:05:53.437Z,1007.23
2023-08-12T05:06:23.406Z,1007.24
2023-08-12T05:06:53.436Z,1007.25
2023-08-12T05:07:23.400Z,1007.24
2023-08-12T05:07:53.376Z,1007.24
2023-08-12T05:08:23.388Z,1007.24
2023-08-12T05:08:54.007Z,1007.24
2023-08-12T05:09:23.384Z,1007.23
2023-08-12T05:09:53.384Z,1007.24
2023-08-12T05:10:23.393Z,1007.24
2023-08-12T05:10:53.396Z,1007.23
2023-08-12T05:11:23.360Z,1007.24
2023-08-12T05:11:53.357Z,1007.24
2023-08-12T05:12:23.358Z,1007.24
2023-08-12T05:12:53.391Z,1007.25
2023-08-12T05:13:23.364Z,1007.25
2023-08-12T05:13:53.328Z,1007.25
2023-08-12T05:14:23.313Z,1007.26
2023-08-12T05:14:53.313Z,1007.26
2023-08-12T05:15:23.367Z,1007.27
2023-08-12T05:15:53.404Z,1007.28
2023-08-12T05:16:23.353Z,1007.28
2023-08-12T05:16:53.319Z,1007.29
2023-08-12T05:17:23.295Z,1007.29
2023-08-12T05:17:53.649Z,1007.29
2023-08-12T05:18:23.484Z,1007.29
2023-08-12T05:18:53.276Z,1007.29
2023-08-12T05:19:23.251Z,1007.28
2023-08-12T05:19:53.255Z,1007.28
2023-08-12T05:20:23.250Z,1007.27
2023-08-12T05:20:53.241Z,1007.26
2023-08-12T05:21:23.261Z,1007.24
2023-08-12T05:21:53.252Z,1007.23
2023-08-12T05:22:23.244Z,1007.21
2023-08-12T05:22:53.238Z,1007.20
2023-08-12T05:23:23.227Z,1007.19
2023-08-12T05:23:53.221Z,1007.18
2023-08-12T05:24:23.200Z,1007.18
2023-08-12T05:24:53.200Z,1007.18
2023-08-12T05:25:23.207Z,1007.18
2023-08-12T05:25:55.395Z,1007.18
2023-08-12T05:26:23.208Z,1007.18
2023-08-12T05:26:53.200Z,1007.17
2023-08-12T05:27:23.211Z,1007.17
2023-08-12T05:27:53.193Z,1007.16
2023-08-12T05:28:23.164Z,1007.15
2023-08-12T05:28:53.175Z,1007.14
2023-08-12T05:29:23.175Z,1007.14
2023-08-12T05:29:53.157Z,1007.14
2023-08-12T05:30:23.157Z,1007.14
2023-08-12T05:30:53.137Z,1007.15
2023-08-12T05:31:23.190Z,1007.14
2023-08-12T05:31:53.283Z,1007.14
2023-08-12T05:32:23.329Z,1007.14
2023-08-12T05:32:53.184Z,1007.14
2023-08-12T05:33:23.169Z,1007.14
2023-08-12T05:33:53.272Z,1007.13
2023-08-12T05:34:23.109Z,1007.13
2023-08-12T05:34:53.094Z,1007.12
2023-08-12T05:35:23.096Z,1007.11
2023-08-12T05:35:53.148Z,1007.10
2023-08-12T05:36:23.158Z,1007.09
2023-08-12T05:36:53.091Z,1007.07
2023-08-12T05:37:23.073Z,1007.06
2023-08-12T05:37:53.070Z,1007.05
2023-08-12T05:38:23.055Z,1007.04
2023-08-12T05:38:53.038Z,1007.03
2023-08-12T05:39:23.049Z,1007.02
2023-08-12T05:39:53.029Z,1007.02
2023-08-12T05:40:23.034Z,1007.02
2023-08-12T05:40:53.039Z,1007.01
2023-08-12T05:41:23.036Z,1006.99
2023-08-12T05:41:53.046Z,1006.98
2023-08-12T05:42:23.052Z,1006.96
2023-08-12T05:42:53.003Z,1006.95
2023-08-12T05:43:22.998Z,1006.93
2023-08-12T05:43:53.014Z,1006.93
2023-08-12T05:44:23.006Z,1006.92
2023-08-12T05:44:52.986Z,1006.91
2023-08-12T05:45:23.015Z,1006.90
2023-08-12T05:45:53.148Z,1006.89
2023-08-12T05:46:23.374Z,1006.88
2023-08-12T05:46:52.993Z,1006.87
2023-08-12T05:47:23.527Z,1006.85
2023-08-12T05:47:53.050Z,1006.84
2023-08-12T05:48:22.959Z,1006.83
2023-08-12T05:48:52.946Z,1006.82
2023-08-12T05:49:22.938Z,1006.81
2023-08-12T05:49:52.931Z,1006.79
2023-08-12T05:50:23.291Z,1006.78
2023-08-12T05:50:52.945Z,1006.77
2023-08-12T05:51:22.943Z,1006.76
2023-08-12T05:51:52.933Z,1006.75
2023-08-12T05:52:22.939Z,1006.75
2023-08-12T05:52:52.950Z,1006.76
2023-08-12T05:53:22.897Z,1006.78
2023-08-12T05:53:52.879Z,1006.81
2023-08-12T05:54:22.920Z,1006.84
2023-08-12T05:54:52.902Z,1006.86
2023-08-12T05:55:22.865Z,1006.88
2023-08-12T05:55:52.889Z,1006.89
2023-08-12T05:56:22.885Z,1006.88
2023-08-12T05:56:52.898Z,1006.86
2023-08-12T05:57:22.885Z,1006.84
2023-08-12T05:57:52.852Z,1006.83
2023-08-12T05:58:22.836Z,1006.83
2023-08-12T05:58:52.837Z,1006.83
2023-08-12T05:59:22.824Z,1006.85
2023-08-12T05:59:53.031Z,1006.86
2023-08-12T06:00:23.003Z,1006.88
2023-08-12T06:00:52.816Z,1006.90
2023-08-12T06:01:22.874Z,1006.91
2023-08-12T06:01:52.839Z,1006.90
2023-08-12T06:02:22.786Z,1006.90
2023-08-12T06:02:53.065Z,1006.89